Terminal Aerodrome Forecast
Issued by NWS

Home | Current Version | Previous Version | Text Only | Print | Product List | Glossary On
Versions: 1 2 3 4 5 6 7 8 9 10 11 12 13 14 15 16
000
FTAK31 PAJN 191700
TAFASI
TAF
PASI 191731Z 1918/2018 11011KT P6SM BKN050 OVC100
     FM192100 10018G27KT P6SM VCSH FEW040 OVC060
     FM200000 12018G30KT 5SM -RA BR BKN025 OVC030 WS020/14040KT
     FM200300 12012G20KT 4SM -RA BR BKN025 OVC030 WS020/14030KT
     FM200600 12012KT 4SM -RA OVC025=

USA.gov is the U.S. government's official web portal to all federal, state and local government web resources and services.